createdAt,value
2023-04-16T00:00:11.665Z,9.90
2023-04-16T00:02:39.732Z,10.20
2023-04-16T00:05:08.362Z,10.07
2023-04-16T00:07:37.683Z,8.87
2023-04-16T00:10:06.436Z,10.37
2023-04-16T00:12:34.540Z,9.23
2023-04-16T00:15:02.504Z,11.17
2023-04-16T00:17:30.539Z,9.93
2023-04-16T00:19:58.852Z,9.47
2023-04-16T00:22:27.016Z,9.70
2023-04-16T00:24:56.730Z,11.00
2023-04-16T00:27:24.686Z,10.87
2023-04-16T00:29:52.694Z,10.07
2023-04-16T00:32:20.684Z,11.63
2023-04-16T00:34:48.687Z,10.73
2023-04-16T00:37:16.722Z,10.83
2023-04-16T00:39:44.726Z,11.40
2023-04-16T00:42:14.053Z,11.33
2023-04-16T00:44:42.073Z,9.50
2023-04-16T00:47:10.675Z,10.07
2023-04-16T00:49:38.849Z,10.10
2023-04-16T00:52:07.028Z,11.07
2023-04-16T00:54:35.009Z,10.37
2023-04-16T00:57:03.573Z,11.63
2023-04-16T00:59:33.503Z,9.83
2023-04-16T01:02:01.722Z,10.43
2023-04-16T01:04:31.007Z,11.03
2023-04-16T01:06:59.141Z,11.33
2023-04-16T01:09:27.231Z,10.90
2023-04-16T01:11:55.227Z,10.37
2023-04-16T01:14:23.168Z,10.03
2023-04-16T01:16:52.599Z,10.97
2023-04-16T01:19:20.600Z,10.43
2023-04-16T01:21:49.892Z,12.17
2023-04-16T01:24:17.840Z,8.87
2023-04-16T01:26:45.853Z,10.67
2023-04-16T01:29:13.740Z,9.73
2023-04-16T01:31:41.748Z,10.30
2023-04-16T01:34:09.741Z,10.70
2023-04-16T01:36:37.679Z,9.60
2023-04-16T01:39:07.215Z,9.30
2023-04-16T01:41:36.250Z,10.47
2023-04-16T01:44:04.240Z,13.70
2023-04-16T01:46:34.478Z,9.03
2023-04-16T01:49:03.109Z,10.67
2023-04-16T01:51:32.237Z,10.40
2023-04-16T01:54:00.372Z,10.23
2023-04-16T01:56:29.652Z,9.40
2023-04-16T01:58:57.610Z,10.37
2023-04-16T02:01:25.753Z,10.50
2023-04-16T02:03:54.021Z,10.13
2023-04-16T02:06:22.015Z,10.27
2023-04-16T02:08:50.156Z,10.77
2023-04-16T02:11:18.239Z,9.60
2023-04-16T02:13:47.678Z,9.43
2023-04-16T02:16:15.747Z,11.33
2023-04-16T02:18:43.810Z,10.23
2023-04-16T02:21:11.753Z,10.63
2023-04-16T02:23:41.152Z,11.43
2023-04-16T02:26:09.314Z,10.67
2023-04-16T02:28:37.322Z,11.90
2023-04-16T02:31:06.723Z,11.50
2023-04-16T02:33:35.942Z,10.37
2023-04-16T02:36:03.940Z,11.70
2023-04-16T02:38:31.970Z,12.10
2023-04-16T02:40:59.950Z,11.33
2023-04-16T02:43:27.951Z,9.50
2023-04-16T02:45:55.981Z,10.30
2023-04-16T02:48:25.460Z,10.40
2023-04-16T02:50:53.400Z,9.43
2023-04-16T02:53:21.596Z,11.47
2023-04-16T02:55:53.526Z,9.47
2023-04-16T02:58:21.842Z,9.50
2023-04-16T03:00:49.911Z,10.00
2023-04-16T03:03:18.077Z,10.10
2023-04-16T03:05:47.676Z,10.30
2023-04-16T03:08:15.946Z,10.33
2023-04-16T03:10:43.950Z,10.17
2023-04-16T03:13:12.028Z,10.80
2023-04-16T03:15:40.083Z,10.33
2023-04-16T03:18:08.095Z,10.67
2023-04-16T03:20:36.267Z,11.80
2023-04-16T03:23:05.734Z,10.60
2023-04-16T03:25:33.739Z,11.43
2023-04-16T03:28:03.768Z,10.80
2023-04-16T03:30:31.842Z,11.60
2023-04-16T03:33:00.002Z,11.30
2023-04-16T03:35:28.119Z,13.53
2023-04-16T03:37:56.185Z,10.70
2023-04-16T03:40:25.526Z,11.87
2023-04-16T03:42:53.562Z,11.43
2023-04-16T03:45:21.621Z,11.67
2023-04-16T03:47:52.764Z,11.50
2023-04-16T03:50:21.191Z,11.43
2023-04-16T03:52:49.727Z,10.93
2023-04-16T03:55:18.263Z,12.43
2023-04-16T03:57:47.645Z,12.17
2023-04-16T04:00:15.835Z,13.10
2023-04-16T04:02:44.214Z,12.17
2023-04-16T04:05:12.513Z,11.50
2023-04-16T04:07:40.549Z,11.57
2023-04-16T04:10:10.411Z,12.47
2023-04-16T04:12:38.472Z,12.30
2023-04-16T04:15:09.308Z,12.17
2023-04-16T04:17:37.399Z,12.90
2023-04-16T04:20:06.186Z,12.87
2023-04-16T04:22:34.094Z,11.77
2023-04-16T04:25:02.175Z,12.43
2023-04-16T04:27:30.441Z,11.47
2023-04-16T04:29:58.798Z,11.57
2023-04-16T04:32:28.235Z,13.17
2023-04-16T04:34:56.342Z,11.27
2023-04-16T04:37:24.490Z,11.97
2023-04-16T04:39:52.535Z,12.50
2023-04-16T04:42:21.509Z,12.10
2023-04-16T04:44:49.550Z,12.30
2023-04-16T04:47:17.513Z,12.37
2023-04-16T04:49:46.925Z,12.27
2023-04-16T04:52:15.430Z,12.37
2023-04-16T04:54:43.637Z,13.17
2023-04-16T04:57:11.740Z,11.07
2023-04-16T04:59:39.785Z,13.53
2023-04-16T05:02:07.908Z,12.27
2023-04-16T05:04:36.138Z,12.57
2023-04-16T05:07:06.541Z,11.23
2023-04-16T05:09:34.578Z,12.43
2023-04-16T05:12:02.790Z,11.13
2023-04-16T05:14:30.848Z,13.13
2023-04-16T05:16:58.898Z,12.87
2023-04-16T05:19:26.906Z,13.13
2023-04-16T05:21:55.873Z,10.13
2023-04-16T05:24:25.493Z,11.20
2023-04-16T05:26:53.469Z,11.03
2023-04-16T05:29:22.037Z,10.53
2023-04-16T05:31:50.071Z,10.70
2023-04-16T05:34:18.093Z,11.47
2023-04-16T05:36:46.047Z,11.63
2023-04-16T05:39:14.101Z,11.17
2023-04-16T05:41:43.526Z,9.13
2023-04-16T05:44:11.552Z,8.60
2023-04-16T05:46:39.604Z,11.57
2023-04-16T05:49:07.763Z,11.37
2023-04-16T05:51:36.688Z,12.30
2023-04-16T05:54:04.872Z,11.40
2023-04-16T05:56:32.872Z,11.77
2023-04-16T05:59:02.292Z,12.03
2023-04-16T06:01:30.247Z,11.07
2023-04-16T06:03:58.597Z,10.10
2023-04-16T06:06:27.434Z,10.17
2023-04-16T06:08:55.475Z,12.23
2023-04-16T06:11:23.629Z,10.53
2023-04-16T06:13:51.526Z,11.07
2023-04-16T06:16:21.066Z,10.57
2023-04-16T06:18:49.203Z,10.87
2023-04-16T06:21:17.446Z,10.30
2023-04-16T06:23:45.500Z,10.33
2023-04-16T06:26:13.531Z,9.87
2023-04-16T06:28:41.588Z,9.07
2023-04-16T06:31:09.761Z,9.93
2023-04-16T06:33:39.150Z,11.83
2023-04-16T06:36:07.472Z,8.70
2023-04-16T06:38:35.524Z,9.03
2023-04-16T06:41:03.688Z,10.70
2023-04-16T06:43:33.537Z,9.77
2023-04-16T06:46:01.651Z,8.03
2023-04-16T06:48:30.096Z,8.47
2023-04-16T06:50:59.520Z,9.40
2023-04-16T06:53:27.584Z,10.67
2023-04-16T06:55:55.667Z,9.10
2023-04-16T06:58:23.944Z,8.27
2023-04-16T07:00:52.099Z,7.93
2023-04-16T07:03:20.600Z,9.50
2023-04-16T07:05:48.680Z,8.60
2023-04-16T07:08:18.003Z,13.33
2023-04-16T07:10:46.324Z,9.23
2023-04-16T07:13:14.362Z,8.50
2023-04-16T07:15:42.366Z,8.80
2023-04-16T07:18:10.566Z,9.17
2023-04-16T07:20:38.852Z,9.03
2023-04-16T07:23:06.977Z,8.70
2023-04-16T07:25:36.342Z,8.80
2023-04-16T07:28:05.084Z,8.70
2023-04-16T07:30:34.723Z,7.90
2023-04-16T07:33:04.063Z,10.50
2023-04-16T07:35:32.450Z,8.83
2023-04-16T07:38:00.404Z,8.83
2023-04-16T07:40:28.548Z,8.23
2023-04-16T07:42:58.656Z,8.47
2023-04-16T07:45:26.747Z,9.13
2023-04-16T07:47:54.753Z,8.70
2023-04-16T07:50:22.900Z,8.73
2023-04-16T07:52:51.097Z,9.13
2023-04-16T07:55:19.102Z,9.87
2023-04-16T07:57:47.300Z,9.30
2023-04-16T08:00:17.226Z,9.20
2023-04-16T08:02:46.123Z,8.87
2023-04-16T08:05:14.592Z,10.33
2023-04-16T08:07:43.007Z,8.67
2023-04-16T08:10:11.339Z,9.33
2023-04-16T08:12:39.416Z,9.40
2023-04-16T08:15:08.973Z,8.73
2023-04-16T08:17:38.480Z,8.27
2023-04-16T08:20:07.568Z,8.37
2023-04-16T08:22:35.734Z,7.60
2023-04-16T08:25:04.553Z,9.50
2023-04-16T08:27:32.405Z,7.33
2023-04-16T08:30:00.351Z,8.23
2023-04-16T08:32:31.536Z,8.60
2023-04-16T08:35:00.991Z,9.60
2023-04-16T08:37:29.000Z,8.40
2023-04-16T08:39:57.050Z,7.30
2023-04-16T08:42:32.192Z,6.80
2023-04-16T08:45:08.725Z,6.43
2023-04-16T08:47:37.869Z,7.17
2023-04-16T08:50:10.049Z,6.33
2023-04-16T08:52:43.388Z,6.77
2023-04-16T08:55:15.339Z,6.37
2023-04-16T08:57:53.542Z,6.47
2023-04-16T09:00:22.455Z,6.57
2023-04-16T09:02:52.231Z,7.60
2023-04-16T09:05:25.771Z,7.17
2023-04-16T09:07:54.543Z,7.17
2023-04-16T09:10:23.032Z,5.70
2023-04-16T09:12:51.290Z,7.00
2023-04-16T09:15:22.337Z,5.87
2023-04-16T09:17:50.438Z,7.13
2023-04-16T09:20:18.642Z,8.93
2023-04-16T09:22:48.558Z,6.97
2023-04-16T09:25:16.632Z,6.60
2023-04-16T09:27:45.360Z,6.90
2023-04-16T09:30:24.526Z,6.20
2023-04-16T09:32:53.802Z,5.93
2023-04-16T09:35:22.338Z,6.07
2023-04-16T09:37:59.344Z,6.80
2023-04-16T09:40:30.594Z,6.57
2023-04-16T09:43:00.590Z,5.60
2023-04-16T09:45:32.735Z,5.43
2023-04-16T09:48:04.981Z,6.60
2023-04-16T09:50:33.122Z,8.93
2023-04-16T09:53:03.790Z,5.93
2023-04-16T09:55:31.887Z,6.60
2023-04-16T09:58:01.091Z,6.20
2023-04-16T10:00:31.647Z,5.73
2023-04-16T10:03:07.221Z,6.23
2023-04-16T10:05:36.633Z,5.03
2023-04-16T10:08:13.290Z,6.00
2023-04-16T10:10:42.357Z,5.90
2023-04-16T10:13:10.847Z,5.90
2023-04-16T10:15:39.780Z,5.83
2023-04-16T10:18:08.503Z,5.63
2023-04-16T10:20:37.927Z,6.43
2023-04-16T10:23:08.032Z,6.33
2023-04-16T10:25:36.160Z,6.77
2023-04-16T10:28:04.705Z,6.83
2023-04-16T10:30:32.969Z,6.30
2023-04-16T10:33:01.599Z,5.60
2023-04-16T10:35:29.838Z,5.47
2023-04-16T10:37:58.262Z,8.13
2023-04-16T10:40:29.449Z,6.60
2023-04-16T10:42:58.505Z,6.00
2023-04-16T10:45:33.542Z,6.50
2023-04-16T10:48:06.127Z,6.50
2023-04-16T10:50:37.397Z,7.93
2023-04-16T10:53:25.951Z,7.40
2023-04-16T10:56:14.203Z,7.60
2023-04-16T10:58:42.795Z,7.80
2023-04-16T11:01:14.853Z,7.70
2023-04-16T11:03:44.412Z,7.07
2023-04-16T11:06:14.565Z,7.23
2023-04-16T11:08:53.861Z,7.67
2023-04-16T11:11:24.558Z,8.27
2023-04-16T11:13:57.983Z,8.53
2023-04-16T11:16:29.929Z,7.57
2023-04-16T11:18:58.388Z,8.13
2023-04-16T11:21:26.852Z,8.03
2023-04-16T11:23:56.808Z,8.20
2023-04-16T11:26:27.507Z,7.93
2023-04-16T11:28:57.446Z,7.83
2023-04-16T11:31:27.319Z,8.50
2023-04-16T11:33:57.706Z,7.27
2023-04-16T11:36:27.709Z,8.80
2023-04-16T11:39:03.231Z,7.90
2023-04-16T11:41:32.625Z,7.83
2023-04-16T11:44:00.633Z,7.43
2023-04-16T11:46:39.639Z,8.13
2023-04-16T11:49:07.977Z,7.30
2023-04-16T11:51:41.223Z,7.90
2023-04-16T11:54:12.035Z,8.57
2023-04-16T11:56:47.903Z,8.07
2023-04-16T11:59:17.824Z,7.57
2023-04-16T12:01:49.835Z,7.37
2023-04-16T12:04:20.617Z,8.17
2023-04-16T12:07:11.914Z,6.90
2023-04-16T12:09:41.741Z,7.30
2023-04-16T12:12:30.844Z,7.53
2023-04-16T12:15:03.191Z,7.37
2023-04-16T12:17:31.561Z,6.73
2023-04-16T12:20:02.147Z,6.03
2023-04-16T12:22:31.482Z,7.17
2023-04-16T12:25:04.243Z,6.00
2023-04-16T12:27:50.078Z,7.77
2023-04-16T12:30:22.527Z,6.90
2023-04-16T12:32:52.519Z,6.43
2023-04-16T12:35:32.149Z,7.27
2023-04-16T12:38:00.203Z,6.47
2023-04-16T12:40:28.166Z,6.87
2023-04-16T12:42:57.703Z,7.30
2023-04-16T12:45:25.948Z,6.80
2023-04-16T12:47:54.110Z,7.27
2023-04-16T12:50:22.292Z,7.80
2023-04-16T12:52:50.400Z,10.07
2023-04-16T12:55:18.485Z,8.47
2023-04-16T12:57:48.839Z,8.03
2023-04-16T13:00:18.787Z,7.63
2023-04-16T13:02:47.144Z,8.13
2023-04-16T13:05:16.796Z,7.30
2023-04-16T13:07:44.767Z,8.00
2023-04-16T13:10:13.480Z,7.23
2023-04-16T13:12:41.572Z,6.83
2023-04-16T13:15:11.142Z,5.87
2023-04-16T13:17:40.701Z,6.63
2023-04-16T13:20:11.147Z,7.13
2023-04-16T13:22:39.175Z,7.17
2023-04-16T13:25:08.431Z,6.13
2023-04-16T13:27:36.512Z,7.40
2023-04-16T13:30:04.708Z,6.67
2023-04-16T13:32:32.770Z,6.13
2023-04-16T13:35:02.290Z,7.13
2023-04-16T13:37:30.235Z,7.10
2023-04-16T13:39:58.160Z,5.77
2023-04-16T13:42:26.217Z,6.70
2023-04-16T13:44:55.105Z,5.50
2023-04-16T13:47:23.501Z,6.83
2023-04-16T13:49:51.915Z,7.10
2023-04-16T13:52:21.587Z,6.53
2023-04-16T13:54:49.715Z,7.50
2023-04-16T13:57:18.088Z,7.03
2023-04-16T13:59:46.069Z,8.33
2023-04-16T14:02:14.695Z,6.57
2023-04-16T14:04:42.683Z,7.40
2023-04-16T14:07:10.625Z,7.30
2023-04-16T14:09:40.058Z,7.13
2023-04-16T14:12:08.473Z,6.87
2023-04-16T14:14:36.802Z,7.03
2023-04-16T14:17:04.970Z,8.83
2023-04-16T14:19:33.228Z,8.07
2023-04-16T14:22:01.183Z,8.97
2023-04-16T14:24:29.113Z,8.03
2023-04-16T14:26:58.471Z,8.47
2023-04-16T14:29:26.935Z,6.87
2023-04-16T14:31:54.935Z,8.00
2023-04-16T14:34:22.879Z,7.30
2023-04-16T14:36:52.063Z,7.60
2023-04-16T14:39:20.115Z,6.97
2023-04-16T14:41:48.079Z,7.73
2023-04-16T14:44:17.419Z,7.90
2023-04-16T14:46:46.394Z,8.43
2023-04-16T14:49:14.726Z,8.40
2023-04-16T14:51:43.405Z,8.50
2023-04-16T14:54:12.129Z,8.87
2023-04-16T14:56:40.217Z,9.33
2023-04-16T14:59:08.439Z,11.00
2023-04-16T15:01:39.891Z,10.63
2023-04-16T15:04:08.289Z,10.43
2023-04-16T15:06:36.636Z,11.50
2023-04-16T15:09:05.046Z,8.83
2023-04-16T15:11:33.071Z,8.03
2023-04-16T15:14:01.273Z,8.57
2023-04-16T15:16:29.301Z,12.00
2023-04-16T15:18:58.751Z,11.43
2023-04-16T15:21:27.956Z,15.10
2023-04-16T15:23:56.220Z,13.30
2023-04-16T15:26:24.397Z,9.83
2023-04-16T15:28:52.342Z,11.23
2023-04-16T15:31:21.972Z,12.20
2023-04-16T15:33:50.321Z,10.00
2023-04-16T15:36:19.643Z,14.07
2023-04-16T15:38:47.833Z,9.70
2023-04-16T15:41:16.281Z,9.53
2023-04-16T15:43:45.033Z,7.47
2023-04-16T15:46:13.297Z,8.50
2023-04-16T15:48:41.267Z,7.47
2023-04-16T15:51:09.663Z,5.60
2023-04-16T15:53:39.011Z,6.77
2023-04-16T15:56:07.196Z,5.63
2023-04-16T15:58:35.241Z,7.30
2023-04-16T16:01:03.504Z,5.00
2023-04-16T16:03:33.166Z,5.63
2023-04-16T16:06:03.939Z,5.50
2023-04-16T16:08:34.200Z,4.53
2023-04-16T16:11:03.777Z,5.23
2023-04-16T16:13:31.771Z,5.67
2023-04-16T16:15:59.796Z,6.40
2023-04-16T16:18:27.935Z,5.60
2023-04-16T16:20:58.380Z,5.43
2023-04-16T16:23:27.132Z,4.10
2023-04-16T16:25:55.424Z,4.43
2023-04-16T16:28:25.278Z,4.63
2023-04-16T16:30:55.854Z,3.70
2023-04-16T16:33:23.864Z,3.87
2023-04-16T16:35:51.897Z,3.73
2023-04-16T16:38:19.919Z,3.37
2023-04-16T16:40:47.913Z,4.17
2023-04-16T16:43:16.427Z,3.90
2023-04-16T16:45:46.500Z,4.83
2023-04-16T16:48:14.561Z,3.83
2023-04-16T16:50:42.466Z,3.70
2023-04-16T16:53:10.488Z,4.40
2023-04-16T16:55:38.584Z,4.40
2023-04-16T16:58:06.883Z,4.37
2023-04-16T17:00:35.342Z,3.93
2023-04-16T17:03:05.057Z,3.80
2023-04-16T17:05:33.221Z,3.93
2023-04-16T17:08:01.264Z,4.60
2023-04-16T17:10:29.837Z,3.97
2023-04-16T17:12:57.907Z,4.60
2023-04-16T17:15:25.978Z,4.13
2023-04-16T17:17:54.030Z,4.57
2023-04-16T17:20:23.953Z,4.63
2023-04-16T17:22:52.250Z,3.40
2023-04-16T17:25:20.324Z,4.73
2023-04-16T17:27:48.237Z,3.80
2023-04-16T17:30:16.937Z,4.43
2023-04-16T17:32:45.165Z,5.33
2023-04-16T17:35:13.904Z,3.83
2023-04-16T17:37:43.347Z,3.60
2023-04-16T17:40:12.703Z,4.30
2023-04-16T17:42:40.918Z,3.87
2023-04-16T17:45:09.713Z,3.43
2023-04-16T17:47:38.138Z,3.33
2023-04-16T17:50:07.280Z,3.87
2023-04-16T17:52:35.399Z,5.17
2023-04-16T17:55:05.003Z,4.03
2023-04-16T17:57:33.118Z,4.40
2023-04-16T18:00:01.216Z,4.60
2023-04-16T18:02:29.604Z,4.10
2023-04-16T18:04:57.812Z,4.90
2023-04-16T18:07:26.580Z,7.10
2023-04-16T18:09:54.747Z,5.87
2023-04-16T18:12:24.257Z,4.27
2023-04-16T18:14:52.325Z,5.13
2023-04-16T18:17:21.848Z,4.40
2023-04-16T18:19:49.962Z,4.30
2023-04-16T18:22:18.312Z,4.40
2023-04-16T18:24:46.567Z,4.40
2023-04-16T18:27:14.798Z,3.73
2023-04-16T18:29:45.345Z,4.40
2023-04-16T18:32:13.467Z,4.67
2023-04-16T18:34:41.791Z,4.20
2023-04-16T18:37:09.781Z,4.63
2023-04-16T18:39:37.901Z,4.57
2023-04-16T18:42:06.207Z,4.63
2023-04-16T18:44:34.171Z,5.87
2023-04-16T18:47:03.853Z,5.00
2023-04-16T18:49:31.831Z,5.57
2023-04-16T18:51:59.816Z,4.63
2023-04-16T18:54:28.047Z,4.77
2023-04-16T18:56:57.773Z,4.57
2023-04-16T18:59:27.552Z,5.10
2023-04-16T19:01:55.781Z,5.50
2023-04-16T19:04:25.404Z,4.70
2023-04-16T19:06:53.650Z,4.90
2023-04-16T19:09:21.761Z,5.63
2023-04-16T19:11:50.594Z,6.10
2023-04-16T19:14:18.754Z,6.17
2023-04-16T19:16:47.491Z,5.90
2023-04-16T19:19:15.968Z,5.37
2023-04-16T19:21:45.554Z,5.00
2023-04-16T19:24:13.698Z,5.47
2023-04-16T19:26:41.771Z,5.07
2023-04-16T19:29:10.087Z,6.40
2023-04-16T19:31:38.457Z,6.07
2023-04-16T19:34:06.428Z,6.47
2023-04-16T19:36:34.669Z,6.33
2023-04-16T19:39:04.300Z,5.87
2023-04-16T19:41:32.297Z,5.37
2023-04-16T19:44:00.635Z,5.73
2023-04-16T19:46:28.609Z,4.90
2023-04-16T19:48:56.921Z,5.47
2023-04-16T19:51:25.184Z,5.00
2023-04-16T19:53:54.274Z,6.10
2023-04-16T19:56:23.671Z,4.47
2023-04-16T19:58:51.636Z,5.50
2023-04-16T20:01:19.680Z,5.00
2023-04-16T20:03:47.811Z,5.33
2023-04-16T20:06:17.483Z,4.93
2023-04-16T20:08:45.864Z,4.80
2023-04-16T20:11:14.469Z,5.50
2023-04-16T20:16:28.092Z,4.67
2023-04-16T20:18:56.366Z,3.77
2023-04-16T20:21:25.178Z,4.80
2023-04-16T20:23:53.319Z,4.90
2023-04-16T20:26:24.083Z,5.03
2023-04-16T20:28:53.359Z,4.87
2023-04-16T20:31:21.790Z,5.23
2023-04-16T20:33:51.347Z,5.13
2023-04-16T20:36:19.511Z,4.87
2023-04-16T20:38:47.729Z,4.93
2023-04-16T20:41:20.317Z,4.47
2023-04-16T20:43:50.955Z,4.00
2023-04-16T20:46:19.156Z,5.33
2023-04-16T20:48:47.139Z,5.10
2023-04-16T20:51:16.697Z,4.40
2023-04-16T20:53:44.833Z,4.53
2023-04-16T20:56:14.912Z,4.93
2023-04-16T20:58:43.880Z,4.07
2023-04-16T21:01:12.203Z,4.53
2023-04-16T21:03:40.667Z,4.30
2023-04-16T21:06:09.251Z,4.33
2023-04-16T21:08:38.800Z,4.13
2023-04-16T21:11:13.318Z,4.80
2023-04-16T21:13:41.456Z,5.63
2023-04-16T21:16:13.464Z,4.50
2023-04-16T21:18:41.594Z,4.30
2023-04-16T21:21:09.810Z,3.77
2023-04-16T21:23:39.548Z,5.30
2023-04-16T21:26:07.709Z,4.77
2023-04-16T21:28:36.826Z,4.47
2023-04-16T21:31:05.211Z,4.17
2023-04-16T21:33:33.401Z,3.93
2023-04-16T21:36:01.520Z,4.37
2023-04-16T21:38:29.602Z,4.80
2023-04-16T21:41:00.388Z,3.60
2023-04-16T21:43:30.704Z,3.87
2023-04-16T21:45:58.934Z,4.07
2023-04-16T21:48:29.168Z,4.37
2023-04-16T21:50:58.947Z,3.67
2023-04-16T21:53:28.146Z,4.67
2023-04-16T21:55:56.290Z,4.70
2023-04-16T21:58:26.723Z,4.13
2023-04-16T22:00:57.129Z,4.13
2023-04-16T22:03:28.219Z,4.63
2023-04-16T22:06:02.795Z,4.13
2023-04-16T22:08:31.179Z,4.23
2023-04-16T22:10:59.970Z,4.47
2023-04-16T22:13:32.519Z,4.00
2023-04-16T22:16:02.468Z,3.60
2023-04-16T22:18:35.797Z,4.53
2023-04-16T22:21:05.774Z,4.53
2023-04-16T22:23:33.871Z,4.47
2023-04-16T22:26:03.004Z,3.90
2023-04-16T22:28:32.796Z,4.57
2023-04-16T22:31:00.882Z,3.83
2023-04-16T22:33:35.629Z,4.60
2023-04-16T22:36:03.903Z,4.63
2023-04-16T22:38:34.721Z,5.27
2023-04-16T22:41:02.817Z,5.10
2023-04-16T22:43:32.489Z,4.57
2023-04-16T22:46:04.897Z,4.40
2023-04-16T22:48:34.050Z,4.13
2023-04-16T22:51:04.460Z,4.93
2023-04-16T22:53:34.848Z,4.07
2023-04-16T22:56:02.953Z,4.13
2023-04-16T22:58:32.445Z,4.63
2023-04-16T23:01:01.771Z,4.50
2023-04-16T23:03:34.408Z,4.47
2023-04-16T23:06:03.796Z,5.27
2023-04-16T23:08:36.067Z,5.90
2023-04-16T23:11:05.188Z,5.03
2023-04-16T23:13:36.852Z,4.40
2023-04-16T23:16:05.107Z,4.60
2023-04-16T23:18:35.608Z,5.90
2023-04-16T23:21:03.710Z,4.60
2023-04-16T23:23:31.916Z,5.37
2023-04-16T23:26:01.003Z,6.20
2023-04-16T23:28:29.242Z,5.17
2023-04-16T23:31:01.008Z,5.63
2023-04-16T23:33:29.143Z,5.57
2023-04-16T23:35:57.254Z,5.17
2023-04-16T23:38:27.390Z,4.67
2023-04-16T23:40:55.544Z,5.90
2023-04-16T23:43:23.827Z,5.67
2023-04-16T23:45:52.259Z,4.63
2023-04-16T23:48:23.072Z,5.43
2023-04-16T23:50:51.119Z,5.83
2023-04-16T23:53:19.373Z,5.17
2023-04-16T23:55:47.623Z,4.83
2023-04-16T23:58:17.691Z,5.63
